createdAt,value
2023-02-23T00:00:07.779Z,0
2023-02-23T00:03:08.423Z,0
2023-02-23T00:06:07.727Z,0
2023-02-23T00:09:07.745Z,0
2023-02-23T00:12:07.914Z,0
2023-02-23T00:15:07.754Z,0
2023-02-23T00:18:07.801Z,0
2023-02-23T00:21:07.734Z,0
2023-02-23T00:24:07.724Z,0
2023-02-23T00:27:07.710Z,0
2023-02-23T00:30:07.964Z,0
2023-02-23T00:33:07.745Z,0
2023-02-23T00:36:07.762Z,0
2023-02-23T00:39:07.695Z,0
2023-02-23T00:42:08.219Z,0
2023-02-23T00:45:07.787Z,0
2023-02-23T00:48:07.785Z,0
2023-02-23T00:51:07.820Z,0
2023-02-23T00:54:07.702Z,0
2023-02-23T00:57:07.720Z,0
2023-02-23T01:00:07.695Z,0
2023-02-23T01:03:07.795Z,0
2023-02-23T01:06:07.704Z,0
2023-02-23T01:09:07.709Z,0
2023-02-23T01:12:07.925Z,0
2023-02-23T01:15:07.727Z,0
2023-02-23T01:18:07.722Z,0
2023-02-23T01:21:07.772Z,0
2023-02-23T01:24:07.689Z,0
2023-02-23T01:27:07.698Z,0
2023-02-23T01:30:07.765Z,0
2023-02-23T01:33:07.752Z,0
2023-02-23T01:36:07.700Z,0
2023-02-23T01:39:07.810Z,0
2023-02-23T01:42:07.736Z,0
2023-02-23T01:45:07.742Z,0
2023-02-23T01:48:07.688Z,0
2023-02-23T01:51:07.673Z,0
2023-02-23T01:54:07.893Z,0
2023-02-23T01:57:07.796Z,0
2023-02-23T02:00:07.839Z,0
2023-02-23T02:03:07.728Z,0
2023-02-23T02:06:07.792Z,0
2023-02-23T02:09:07.807Z,0
2023-02-23T02:12:07.731Z,0
2023-02-23T02:15:07.741Z,0
2023-02-23T02:18:07.855Z,0
2023-02-23T02:21:07.720Z,0
2023-02-23T02:24:07.821Z,0
2023-02-23T02:27:07.679Z,0
2023-02-23T02:30:07.763Z,0
2023-02-23T02:33:07.711Z,0
2023-02-23T02:36:07.821Z,0
2023-02-23T02:39:07.691Z,0
2023-02-23T02:42:07.699Z,0
2023-02-23T02:45:07.753Z,0
2023-02-23T02:48:07.741Z,0
2023-02-23T02:51:07.687Z,0
2023-02-23T02:54:07.773Z,0
2023-02-23T02:57:07.738Z,0
2023-02-23T03:00:07.768Z,0
2023-02-23T03:03:07.751Z,0
2023-02-23T03:06:07.716Z,0
2023-02-23T03:09:07.765Z,0
2023-02-23T03:12:07.831Z,0
2023-02-23T03:15:08.793Z,0
2023-02-23T03:18:07.791Z,0
2023-02-23T03:21:07.663Z,0
2023-02-23T03:24:09.826Z,0
2023-02-23T03:27:07.734Z,0
2023-02-23T03:30:07.780Z,0
2023-02-23T03:33:07.708Z,0
2023-02-23T03:36:07.833Z,0
2023-02-23T03:39:07.749Z,0
2023-02-23T03:42:07.739Z,0
2023-02-23T03:45:07.795Z,0
2023-02-23T03:48:07.685Z,0
2023-02-23T03:51:07.792Z,0
2023-02-23T03:54:07.751Z,0
2023-02-23T03:57:07.734Z,0
2023-02-23T04:00:07.775Z,0
2023-02-23T04:03:07.750Z,0
2023-02-23T04:06:07.643Z,0
2023-02-23T04:09:07.752Z,0
2023-02-23T04:12:07.697Z,0
2023-02-23T04:15:07.746Z,0
2023-02-23T04:18:07.741Z,0
2023-02-23T04:21:08.198Z,0
2023-02-23T04:24:07.716Z,0
2023-02-23T04:27:07.740Z,0
2023-02-23T04:30:07.687Z,0
2023-02-23T04:33:07.718Z,0
2023-02-23T04:36:07.719Z,0
2023-02-23T04:39:07.708Z,0
2023-02-23T04:42:07.708Z,0
2023-02-23T04:45:07.739Z,0
2023-02-23T04:48:07.769Z,0
2023-02-23T04:51:07.654Z,0
2023-02-23T04:54:07.777Z,0
2023-02-23T04:57:07.730Z,0
2023-02-23T05:00:07.781Z,0
2023-02-23T05:03:07.686Z,0
2023-02-23T05:06:07.706Z,0
2023-02-23T05:09:07.776Z,0
2023-02-23T05:12:07.743Z,0
2023-02-23T05:15:07.789Z,0
2023-02-23T05:18:07.726Z,0
2023-02-23T05:21:07.683Z,0
2023-02-23T05:24:07.767Z,0
2023-02-23T05:27:07.695Z,0
2023-02-23T05:30:07.862Z,0
2023-02-23T05:33:07.815Z,0
2023-02-23T05:36:07.800Z,0
2023-02-23T05:39:07.723Z,0
2023-02-23T05:42:07.753Z,0
2023-02-23T05:45:07.815Z,0
2023-02-23T05:48:07.814Z,3
2023-02-23T05:51:07.750Z,3
2023-02-23T05:54:07.754Z,7
2023-02-23T05:57:08.653Z,10
2023-02-23T06:00:07.772Z,17
2023-02-23T06:03:07.762Z,23
2023-02-23T06:06:07.717Z,37
2023-02-23T06:09:07.699Z,53
2023-02-23T06:12:07.768Z,70
2023-02-23T06:15:07.789Z,107
2023-02-23T06:18:07.751Z,160
2023-02-23T06:21:07.932Z,223
2023-02-23T06:24:07.844Z,300
2023-02-23T06:27:07.758Z,393
2023-02-23T06:30:08.259Z,480
2023-02-23T06:33:07.813Z,570
2023-02-23T06:36:07.762Z,673
2023-02-23T06:39:07.902Z,753
2023-02-23T06:42:07.765Z,963
2023-02-23T06:45:07.865Z,1063
2023-02-23T06:48:07.812Z,1247
2023-02-23T06:51:07.744Z,1397
2023-02-23T06:54:07.841Z,1587
2023-02-23T06:57:07.928Z,1697
2023-02-23T07:00:07.978Z,1687
2023-02-23T07:03:07.814Z,2013
2023-02-23T07:06:07.782Z,2180
2023-02-23T07:09:07.803Z,2167
2023-02-23T07:12:07.794Z,2203
2023-02-23T07:15:07.811Z,2117
2023-02-23T07:18:07.784Z,2343
2023-02-23T07:21:07.849Z,2493
2023-02-23T07:24:07.728Z,2403
2023-02-23T07:27:07.896Z,2313
2023-02-23T07:30:07.840Z,2323
2023-02-23T07:33:07.790Z,2283
2023-02-23T07:36:07.843Z,2330
2023-02-23T07:39:07.908Z,2467
2023-02-23T07:42:07.861Z,2353
2023-02-23T07:45:07.767Z,2437
2023-02-23T07:48:07.771Z,2673
2023-02-23T07:51:09.905Z,2863
2023-02-23T07:54:07.779Z,2793
2023-02-23T07:57:07.792Z,2620
2023-02-23T08:00:08.469Z,2707
2023-02-23T08:03:07.807Z,3213
2023-02-23T08:06:07.893Z,3297
2023-02-23T08:09:07.927Z,3357
2023-02-23T08:12:07.810Z,3660
2023-02-23T08:15:07.882Z,4443
2023-02-23T08:18:07.794Z,3980
2023-02-23T08:21:07.880Z,3783
2023-02-23T08:24:07.837Z,4500
2023-02-23T08:27:07.825Z,3987
2023-02-23T08:30:07.827Z,4283
2023-02-23T08:33:07.858Z,4247
2023-02-23T08:36:07.789Z,5640
2023-02-23T08:39:07.710Z,5347
2023-02-23T08:42:07.765Z,5720
2023-02-23T08:45:10.610Z,5537
2023-02-23T08:48:07.815Z,4873
2023-02-23T08:51:07.809Z,4437
2023-02-23T08:54:07.764Z,4530
2023-02-23T08:57:07.819Z,4337
2023-02-23T09:00:07.900Z,4503
2023-02-23T09:03:07.909Z,4247
2023-02-23T09:06:07.960Z,3993
2023-02-23T09:09:07.759Z,3733
2023-02-23T09:12:07.883Z,3757
2023-02-23T09:15:07.806Z,3917
2023-02-23T09:18:07.782Z,4050
2023-02-23T09:21:07.797Z,3863
2023-02-23T09:24:07.890Z,3870
2023-02-23T09:27:07.782Z,4190
2023-02-23T09:30:08.330Z,4053
2023-02-23T09:33:07.788Z,3957
2023-02-23T09:36:07.886Z,4240
2023-02-23T09:39:07.913Z,4917
2023-02-23T09:42:07.848Z,5583
2023-02-23T09:45:07.788Z,6003
2023-02-23T09:48:07.731Z,6777
2023-02-23T09:51:07.815Z,7500
2023-02-23T09:54:07.793Z,7930
2023-02-23T09:57:07.818Z,7273
2023-02-23T10:00:07.855Z,7433
2023-02-23T10:03:07.872Z,7027
2023-02-23T10:06:07.888Z,6213
2023-02-23T10:09:07.844Z,5587
2023-02-23T10:12:08.038Z,5127
2023-02-23T10:15:07.844Z,5017
2023-02-23T10:18:10.088Z,4827
2023-02-23T10:21:07.806Z,4673
2023-02-23T10:24:07.835Z,4817
2023-02-23T10:27:07.758Z,5570
2023-02-23T10:30:07.849Z,5940
2023-02-23T10:33:07.812Z,6487
2023-02-23T10:36:20.648Z,6987
2023-02-23T10:39:08.794Z,7803
2023-02-23T10:42:07.841Z,7680
2023-02-23T10:45:08.015Z,7393
2023-02-23T10:48:07.841Z,7393
2023-02-23T10:51:07.787Z,7087
2023-02-23T10:54:14.965Z,7780
2023-02-23T10:57:07.846Z,8193
2023-02-23T11:00:07.955Z,8173
2023-02-23T11:03:07.874Z,7403
2023-02-23T11:06:07.846Z,7860
2023-02-23T11:09:09.970Z,7820
2023-02-23T11:12:07.854Z,6587
2023-02-23T11:15:07.732Z,5863
2023-02-23T11:18:07.928Z,4717
2023-02-23T11:21:07.853Z,5177
2023-02-23T11:24:07.780Z,4313
2023-02-23T11:27:07.825Z,4927
2023-02-23T11:30:08.362Z,4530
2023-02-23T11:33:07.833Z,4250
2023-02-23T11:36:07.851Z,3820
2023-02-23T11:39:07.830Z,3763
2023-02-23T11:42:07.822Z,3917
2023-02-23T11:45:07.872Z,4163
2023-02-23T11:48:07.856Z,4113
2023-02-23T11:51:08.032Z,5440
2023-02-23T11:54:09.943Z,6030
2023-02-23T11:57:07.888Z,7057
2023-02-23T12:00:07.931Z,7670
2023-02-23T12:03:08.209Z,8650
2023-02-23T12:06:07.983Z,7407
2023-02-23T12:09:07.864Z,6300
2023-02-23T12:12:07.816Z,6517
2023-02-23T12:15:07.919Z,8423
2023-02-23T12:18:07.818Z,7813
2023-02-23T12:21:07.925Z,8143
2023-02-23T12:24:07.948Z,7437
2023-02-23T12:27:07.813Z,7430
2023-02-23T12:30:11.035Z,7180
2023-02-23T12:33:07.786Z,6917
2023-02-23T12:36:08.058Z,7327
2023-02-23T12:39:07.798Z,7873
2023-02-23T12:42:07.853Z,8110
2023-02-23T12:45:07.811Z,6777
2023-02-23T12:48:07.941Z,6217
2023-02-23T12:51:07.804Z,5840
2023-02-23T12:54:08.012Z,7253
2023-02-23T12:57:11.242Z,6580
2023-02-23T13:00:07.899Z,7923
2023-02-23T13:03:07.778Z,9717
2023-02-23T13:06:07.820Z,9110
2023-02-23T13:09:07.793Z,9410
2023-02-23T13:12:07.847Z,9413
2023-02-23T13:15:07.791Z,7477
2023-02-23T13:18:07.929Z,6557
2023-02-23T13:21:07.815Z,7137
2023-02-23T13:24:07.796Z,8677
2023-02-23T13:27:07.866Z,8923
2023-02-23T13:30:07.916Z,7317
2023-02-23T13:33:07.887Z,6940
2023-02-23T13:36:07.785Z,6673
2023-02-23T13:39:23.673Z,6687
2023-02-23T13:42:07.776Z,7770
2023-02-23T13:45:07.870Z,10133
2023-02-23T13:48:07.777Z,11390
2023-02-23T13:51:07.862Z,8673
2023-02-23T13:54:07.809Z,7637
2023-02-23T13:57:08.036Z,8080
2023-02-23T14:00:08.258Z,7007
2023-02-23T14:03:08.109Z,6647
2023-02-23T14:06:08.056Z,5410
2023-02-23T14:09:08.022Z,5750
2023-02-23T14:12:07.861Z,5480
2023-02-23T14:15:07.854Z,6340
2023-02-23T14:18:07.862Z,4760
2023-02-23T14:21:07.890Z,2900
2023-02-23T14:24:07.864Z,3127
2023-02-23T14:27:07.802Z,2620
2023-02-23T14:30:08.119Z,2470
2023-02-23T14:33:26.860Z,2520
2023-02-23T14:36:07.998Z,2333
2023-02-23T14:39:07.919Z,1957
2023-02-23T14:42:07.880Z,1800
2023-02-23T14:45:07.795Z,2640
2023-02-23T14:48:07.781Z,3050
2023-02-23T14:51:35.263Z,2993
2023-02-23T14:54:07.808Z,3220
2023-02-23T14:57:07.916Z,3453
2023-02-23T15:00:07.936Z,3273
2023-02-23T15:03:07.909Z,3290
2023-02-23T15:06:08.242Z,3097
2023-02-23T15:09:07.853Z,2780
2023-02-23T15:12:07.867Z,1940
2023-02-23T15:15:07.832Z,1380
2023-02-23T15:18:07.849Z,1103
2023-02-23T15:21:08.365Z,1823
2023-02-23T15:24:07.886Z,2477
2023-02-23T15:27:07.986Z,3083
2023-02-23T15:30:07.929Z,3323
2023-02-23T15:33:08.400Z,3130
2023-02-23T15:36:07.909Z,2860
2023-02-23T15:39:07.877Z,3163
2023-02-23T15:42:07.845Z,2997
2023-02-23T15:45:07.983Z,1480
2023-02-23T15:48:07.867Z,1140
2023-02-23T15:51:07.773Z,2007
2023-02-23T15:54:07.907Z,1753
2023-02-23T15:57:07.820Z,1620
2023-02-23T16:00:07.998Z,1450
2023-02-23T16:03:08.320Z,1237
2023-02-23T16:06:07.839Z,1033
2023-02-23T16:09:08.089Z,863
2023-02-23T16:12:07.899Z,630
2023-02-23T16:15:08.026Z,480
2023-02-23T16:18:07.820Z,437
2023-02-23T16:21:07.822Z,360
2023-02-23T16:24:08.018Z,323
2023-02-23T16:27:07.757Z,250
2023-02-23T16:30:07.842Z,197
2023-02-23T16:33:08.859Z,160
2023-02-23T16:36:07.839Z,110
2023-02-23T16:39:07.857Z,83
2023-02-23T16:42:08.051Z,63
2023-02-23T16:45:07.760Z,53
2023-02-23T16:48:07.870Z,33
2023-02-23T16:51:07.828Z,27
2023-02-23T16:54:07.738Z,20
2023-02-23T16:57:07.749Z,17
2023-02-23T17:00:07.787Z,13
2023-02-23T17:03:07.937Z,10
2023-02-23T17:06:07.818Z,7
2023-02-23T17:09:07.747Z,3
2023-02-23T17:12:07.809Z,3
2023-02-23T17:15:07.738Z,0
2023-02-23T17:18:07.773Z,0
2023-02-23T17:21:07.842Z,0
2023-02-23T17:24:07.987Z,0
2023-02-23T17:27:07.758Z,0
2023-02-23T17:30:07.830Z,0
2023-02-23T17:33:08.730Z,0
2023-02-23T17:36:07.743Z,0
2023-02-23T17:39:07.777Z,0
2023-02-23T17:42:07.802Z,0
2023-02-23T17:45:07.969Z,0
2023-02-23T17:48:07.794Z,0
2023-02-23T17:51:07.780Z,0
2023-02-23T17:54:07.819Z,0
2023-02-23T17:57:07.784Z,0
2023-02-23T18:00:07.852Z,0
2023-02-23T18:03:08.057Z,0
2023-02-23T18:06:07.897Z,0
2023-02-23T18:09:07.764Z,0
2023-02-23T18:12:07.755Z,0
2023-02-23T18:15:07.757Z,0
2023-02-23T18:18:07.803Z,0
2023-02-23T18:21:07.787Z,0
2023-02-23T18:24:07.765Z,0
2023-02-23T18:27:07.843Z,0
2023-02-23T18:30:07.802Z,0
2023-02-23T18:33:08.455Z,0
2023-02-23T18:36:07.824Z,0
2023-02-23T18:39:07.693Z,0
2023-02-23T18:42:09.006Z,0
2023-02-23T18:45:07.792Z,0
2023-02-23T18:48:07.869Z,0
2023-02-23T18:51:07.745Z,0
2023-02-23T18:54:07.746Z,0
2023-02-23T18:57:07.881Z,0
2023-02-23T19:00:07.828Z,0
2023-02-23T19:03:07.793Z,0
2023-02-23T19:06:07.876Z,0
2023-02-23T19:09:07.812Z,0
2023-02-23T19:12:07.737Z,0
2023-02-23T19:15:07.863Z,0
2023-02-23T19:18:07.738Z,0
2023-02-23T19:21:07.777Z,0
2023-02-23T19:24:07.769Z,0
2023-02-23T19:27:07.928Z,0
2023-02-23T19:30:07.697Z,0
2023-02-23T19:33:08.951Z,0
2023-02-23T19:36:07.766Z,0
2023-02-23T19:39:07.766Z,0
2023-02-23T19:42:07.839Z,0
2023-02-23T19:45:07.745Z,0
2023-02-23T19:48:07.814Z,0
2023-02-23T19:51:07.723Z,0
2023-02-23T19:54:07.712Z,0
2023-02-23T19:57:07.789Z,0
2023-02-23T20:00:07.843Z,0
2023-02-23T20:03:07.784Z,0
2023-02-23T20:06:07.825Z,0
2023-02-23T20:09:07.784Z,0
2023-02-23T20:12:07.792Z,0
2023-02-23T20:15:07.751Z,0
2023-02-23T20:18:07.742Z,0
2023-02-23T20:21:07.783Z,0
2023-02-23T20:24:07.918Z,0
2023-02-23T20:27:07.688Z,0
2023-02-23T20:30:07.825Z,0
2023-02-23T20:33:07.903Z,0
2023-02-23T20:36:07.711Z,0
2023-02-23T20:39:07.938Z,0
2023-02-23T20:42:07.748Z,0
2023-02-23T20:45:07.757Z,0
2023-02-23T20:48:07.740Z,0
2023-02-23T20:51:07.795Z,0
2023-02-23T20:54:07.699Z,0
2023-02-23T20:57:07.774Z,0
2023-02-23T21:00:07.725Z,0
2023-02-23T21:03:07.765Z,0
2023-02-23T21:06:07.757Z,0
2023-02-23T21:09:07.722Z,0
2023-02-23T21:12:07.829Z,0
2023-02-23T21:15:07.865Z,0
2023-02-23T21:18:07.736Z,0
2023-02-23T21:21:07.704Z,0
2023-02-23T21:24:07.804Z,0
2023-02-23T21:27:07.704Z,0
2023-02-23T21:30:10.819Z,0
2023-02-23T21:33:08.679Z,0
2023-02-23T21:36:07.809Z,0
2023-02-23T21:39:07.855Z,0
2023-02-23T21:42:07.754Z,0
2023-02-23T21:45:08.070Z,0
2023-02-23T21:48:07.769Z,0
2023-02-23T21:51:08.024Z,0
2023-02-23T21:54:07.749Z,0
2023-02-23T21:57:07.715Z,0
2023-02-23T22:00:07.773Z,0
2023-02-23T22:03:08.280Z,0
2023-02-23T22:06:07.808Z,0
2023-02-23T22:09:07.837Z,0
2023-02-23T22:12:07.734Z,0
2023-02-23T22:15:07.613Z,0
